sensor_id;sensor_type;location;lat;lon;timestamp;P1;durP1;ratioP1;P2;durP2;ratioP2
48743;SDS011;34538;48.836;9.174;2024-01-11T00:00:31;38.83;;;17.87;;
48743;SDS011;34538;48.836;9.174;2024-01-11T00:02:58;37.40;;;17.93;;
48743;SDS011;34538;48.836;9.174;2024-01-11T00:05:24;38.73;;;18.53;;
48743;SDS011;34538;48.836;9.174;2024-01-11T00:07:51;37.83;;;17.20;;
48743;SDS011;34538;48.836;9.174;2024-01-11T00:10:18;40.23;;;17.83;;
48743;SDS011;34538;48.836;9.174;2024-01-11T00:12:47;36.73;;;18.00;;
48743;SDS011;34538;48.836;9.174;2024-01-11T00:15:13;43.40;;;17.57;;
48743;SDS011;34538;48.836;9.174;2024-01-11T00:17:41;39.03;;;17.43;;
48743;SDS011;34538;48.836;9.174;2024-01-11T00:20:08;34.33;;;17.50;;
48743;SDS011;34538;48.836;9.174;2024-01-11T00:22:35;45.10;;;19.10;;
48743;SDS011;34538;48.836;9.174;2024-01-11T00:25:03;39.37;;;17.10;;
48743;SDS011;34538;48.836;9.174;2024-01-11T00:27:30;36.03;;;16.20;;
48743;SDS011;34538;48.836;9.174;2024-01-11T00:29:58;37.07;;;17.90;;
48743;SDS011;34538;48.836;9.174;2024-01-11T00:32:25;38.50;;;17.77;;
48743;SDS011;34538;48.836;9.174;2024-01-11T00:34:52;36.10;;;16.97;;
48743;SDS011;34538;48.836;9.174;2024-01-11T00:37:19;33.30;;;16.60;;
48743;SDS011;34538;48.836;9.174;2024-01-11T00:39:46;39.43;;;19.23;;
48743;SDS011;34538;48.836;9.174;2024-01-11T00:42:13;37.40;;;17.47;;
48743;SDS011;34538;48.836;9.174;2024-01-11T00:44:40;39.67;;;17.57;;
48743;SDS011;34538;48.836;9.174;2024-01-11T00:47:08;38.50;;;17.20;;
48743;SDS011;34538;48.836;9.174;2024-01-11T00:49:35;39.03;;;16.60;;
48743;SDS011;34538;48.836;9.174;2024-01-11T00:52:03;38.17;;;17.10;;
48743;SDS011;34538;48.836;9.174;2024-01-11T00:54:30;38.80;;;17.63;;
48743;SDS011;34538;48.836;9.174;2024-01-11T00:56:57;35.60;;;15.17;;
48743;SDS011;34538;48.836;9.174;2024-01-11T00:59:24;39.43;;;17.77;;
48743;SDS011;34538;48.836;9.174;2024-01-11T01:01:51;40.47;;;17.37;;
48743;SDS011;34538;48.836;9.174;2024-01-11T01:04:19;40.97;;;17.33;;
48743;SDS011;34538;48.836;9.174;2024-01-11T01:06:46;37.73;;;17.27;;
48743;SDS011;34538;48.836;9.174;2024-01-11T01:09:13;38.60;;;17.30;;
48743;SDS011;34538;48.836;9.174;2024-01-11T01:11:40;38.90;;;17.97;;
48743;SDS011;34538;48.836;9.174;2024-01-11T01:14:07;33.77;;;16.57;;
48743;SDS011;34538;48.836;9.174;2024-01-11T01:16:33;36.00;;;16.30;;
48743;SDS011;34538;48.836;9.174;2024-01-11T01:19:00;37.03;;;16.07;;
48743;SDS011;34538;48.836;9.174;2024-01-11T01:21:28;39.80;;;18.43;;
48743;SDS011;34538;48.836;9.174;2024-01-11T01:23:55;36.87;;;16.23;;
48743;SDS011;34538;48.836;9.174;2024-01-11T01:26:22;35.90;;;16.77;;
48743;SDS011;34538;48.836;9.174;2024-01-11T01:28:48;33.10;;;17.33;;
48743;SDS011;34538;48.836;9.174;2024-01-11T01:31:15;37.13;;;16.73;;
48743;SDS011;34538;48.836;9.174;2024-01-11T01:33:42;36.10;;;15.37;;
48743;SDS011;34538;48.836;9.174;2024-01-11T01:36:09;38.13;;;16.63;;
48743;SDS011;34538;48.836;9.174;2024-01-11T01:38:37;41.47;;;17.60;;
48743;SDS011;34538;48.836;9.174;2024-01-11T01:41:04;40.33;;;18.50;;
48743;SDS011;34538;48.836;9.174;2024-01-11T01:43:31;36.47;;;17.60;;
48743;SDS011;34538;48.836;9.174;2024-01-11T01:45:58;37.33;;;18.10;;
48743;SDS011;34538;48.836;9.174;2024-01-11T01:48:26;37.47;;;16.80;;
48743;SDS011;34538;48.836;9.174;2024-01-11T01:50:54;35.53;;;16.73;;
48743;SDS011;34538;48.836;9.174;2024-01-11T01:53:21;37.30;;;17.30;;
48743;SDS011;34538;48.836;9.174;2024-01-11T01:55:51;34.60;;;16.13;;
48743;SDS011;34538;48.836;9.174;2024-01-11T01:58:19;39.07;;;18.00;;
48743;SDS011;34538;48.836;9.174;2024-01-11T02:00:47;42.37;;;18.23;;
48743;SDS011;34538;48.836;9.174;2024-01-11T02:03:15;37.47;;;16.37;;
48743;SDS011;34538;48.836;9.174;2024-01-11T02:05:42;37.10;;;16.43;;
48743;SDS011;34538;48.836;9.174;2024-01-11T02:08:10;34.13;;;16.10;;
48743;SDS011;34538;48.836;9.174;2024-01-11T02:10:41;36.10;;;16.20;;
48743;SDS011;34538;48.836;9.174;2024-01-11T02:13:10;39.60;;;17.43;;
48743;SDS011;34538;48.836;9.174;2024-01-11T02:15:37;40.37;;;18.33;;
48743;SDS011;34538;48.836;9.174;2024-01-11T02:18:04;32.17;;;15.53;;
48743;SDS011;34538;48.836;9.174;2024-01-11T02:20:31;37.57;;;16.47;;
48743;SDS011;34538;48.836;9.174;2024-01-11T02:22:58;31.67;;;15.93;;
48743;SDS011;34538;48.836;9.174;2024-01-11T02:25:31;35.27;;;16.27;;
48743;SDS011;34538;48.836;9.174;2024-01-11T02:27:57;33.27;;;15.93;;
48743;SDS011;34538;48.836;9.174;2024-01-11T02:30:24;35.77;;;16.63;;
48743;SDS011;34538;48.836;9.174;2024-01-11T02:32:52;38.07;;;17.50;;
48743;SDS011;34538;48.836;9.174;2024-01-11T02:35:20;35.83;;;16.33;;
48743;SDS011;34538;48.836;9.174;2024-01-11T02:37:47;37.80;;;16.47;;
48743;SDS011;34538;48.836;9.174;2024-01-11T02:40:15;38.60;;;17.17;;
48743;SDS011;34538;48.836;9.174;2024-01-11T02:42:43;40.90;;;17.00;;
48743;SDS011;34538;48.836;9.174;2024-01-11T02:45:10;35.20;;;16.60;;
48743;SDS011;34538;48.836;9.174;2024-01-11T02:47:38;38.77;;;17.23;;
48743;SDS011;34538;48.836;9.174;2024-01-11T02:50:05;37.03;;;15.83;;
48743;SDS011;34538;48.836;9.174;2024-01-11T02:52:33;32.53;;;15.57;;
48743;SDS011;34538;48.836;9.174;2024-01-11T02:54:59;34.03;;;15.20;;
48743;SDS011;34538;48.836;9.174;2024-01-11T02:57:26;35.00;;;16.73;;
48743;SDS011;34538;48.836;9.174;2024-01-11T02:59:54;35.57;;;16.73;;
48743;SDS011;34538;48.836;9.174;2024-01-11T03:02:21;41.00;;;17.30;;
48743;SDS011;34538;48.836;9.174;2024-01-11T03:04:48;37.83;;;16.07;;
48743;SDS011;34538;48.836;9.174;2024-01-11T03:07:15;37.07;;;17.10;;
48743;SDS011;34538;48.836;9.174;2024-01-11T03:09:42;37.97;;;16.30;;
48743;SDS011;34538;48.836;9.174;2024-01-11T03:12:09;37.43;;;16.83;;
48743;SDS011;34538;48.836;9.174;2024-01-11T03:14:35;33.03;;;16.33;;
48743;SDS011;34538;48.836;9.174;2024-01-11T03:17:03;36.00;;;16.33;;
48743;SDS011;34538;48.836;9.174;2024-01-11T03:19:31;39.60;;;16.73;;
48743;SDS011;34538;48.836;9.174;2024-01-11T03:21:58;34.37;;;15.60;;
48743;SDS011;34538;48.836;9.174;2024-01-11T03:24:28;24.55;;;11.68;;
48743;SDS011;34538;48.836;9.174;2024-01-11T03:26:55;39.20;;;16.20;;
48743;SDS011;34538;48.836;9.174;2024-01-11T03:29:22;34.80;;;14.93;;
48743;SDS011;34538;48.836;9.174;2024-01-11T03:31:49;31.87;;;14.60;;
48743;SDS011;34538;48.836;9.174;2024-01-11T03:34:17;38.17;;;16.23;;
48743;SDS011;34538;48.836;9.174;2024-01-11T03:36:44;32.30;;;16.47;;
48743;SDS011;34538;48.836;9.174;2024-01-11T03:39:11;31.07;;;15.53;;
48743;SDS011;34538;48.836;9.174;2024-01-11T03:41:39;38.40;;;16.90;;
48743;SDS011;34538;48.836;9.174;2024-01-11T03:44:09;35.80;;;16.57;;
48743;SDS011;34538;48.836;9.174;2024-01-11T03:46:36;27.83;;;14.67;;
48743;SDS011;34538;48.836;9.174;2024-01-11T03:49:03;30.07;;;15.27;;
48743;SDS011;34538;48.836;9.174;2024-01-11T03:51:34;37.43;;;15.00;;
48743;SDS011;34538;48.836;9.174;2024-01-11T03:54:01;34.47;;;14.80;;
48743;SDS011;34538;48.836;9.174;2024-01-11T03:56:27;36.20;;;15.60;;
48743;SDS011;34538;48.836;9.174;2024-01-11T03:58:54;33.73;;;15.83;;
48743;SDS011;34538;48.836;9.174;2024-01-11T04:01:21;33.97;;;15.60;;
48743;SDS011;34538;48.836;9.174;2024-01-11T04:03:48;35.93;;;15.80;;
48743;SDS011;34538;48.836;9.174;2024-01-11T04:06:19;36.23;;;15.00;;
48743;SDS011;34538;48.836;9.174;2024-01-11T04:08:48;32.77;;;15.33;;
48743;SDS011;34538;48.836;9.174;2024-01-11T04:11:15;34.93;;;15.27;;
48743;SDS011;34538;48.836;9.174;2024-01-11T04:13:42;33.97;;;14.80;;
48743;SDS011;34538;48.836;9.174;2024-01-11T04:16:09;38.73;;;16.10;;
48743;SDS011;34538;48.836;9.174;2024-01-11T04:18:35;31.33;;;15.57;;
48743;SDS011;34538;48.836;9.174;2024-01-11T04:21:02;34.97;;;16.13;;
48743;SDS011;34538;48.836;9.174;2024-01-11T04:23:30;32.90;;;16.30;;
48743;SDS011;34538;48.836;9.174;2024-01-11T04:25:58;40.63;;;15.47;;
48743;SDS011;34538;48.836;9.174;2024-01-11T04:28:25;33.27;;;15.30;;
48743;SDS011;34538;48.836;9.174;2024-01-11T04:30:51;32.43;;;15.67;;
48743;SDS011;34538;48.836;9.174;2024-01-11T04:33:18;34.37;;;15.83;;
48743;SDS011;34538;48.836;9.174;2024-01-11T04:35:45;34.13;;;15.77;;
48743;SDS011;34538;48.836;9.174;2024-01-11T04:38:12;35.57;;;16.83;;
48743;SDS011;34538;48.836;9.174;2024-01-11T04:40:39;31.90;;;15.63;;
48743;SDS011;34538;48.836;9.174;2024-01-11T04:43:07;41.00;;;16.97;;
48743;SDS011;34538;48.836;9.174;2024-01-11T04:45:34;37.60;;;16.57;;
48743;SDS011;34538;48.836;9.174;2024-01-11T04:48:01;36.93;;;17.97;;
48743;SDS011;34538;48.836;9.174;2024-01-11T04:50:28;38.27;;;17.10;;
48743;SDS011;34538;48.836;9.174;2024-01-11T04:52:55;43.23;;;17.00;;
48743;SDS011;34538;48.836;9.174;2024-01-11T04:55:22;36.70;;;16.93;;
48743;SDS011;34538;48.836;9.174;2024-01-11T04:57:49;34.43;;;16.07;;
48743;SDS011;34538;48.836;9.174;2024-01-11T05:00:17;37.03;;;16.93;;
48743;SDS011;34538;48.836;9.174;2024-01-11T05:02:45;40.43;;;16.87;;
48743;SDS011;34538;48.836;9.174;2024-01-11T05:05:12;37.67;;;18.03;;
48743;SDS011;34538;48.836;9.174;2024-01-11T05:07:38;37.80;;;16.70;;
48743;SDS011;34538;48.836;9.174;2024-01-11T05:10:06;39.20;;;17.70;;
48743;SDS011;34538;48.836;9.174;2024-01-11T05:12:33;41.10;;;16.97;;
48743;SDS011;34538;48.836;9.174;2024-01-11T05:15:02;34.43;;;15.77;;
48743;SDS011;34538;48.836;9.174;2024-01-11T05:17:30;36.63;;;16.63;;
48743;SDS011;34538;48.836;9.174;2024-01-11T05:19:57;35.60;;;17.10;;
48743;SDS011;34538;48.836;9.174;2024-01-11T05:22:24;33.37;;;16.67;;
48743;SDS011;34538;48.836;9.174;2024-01-11T05:24:51;37.07;;;15.43;;
48743;SDS011;34538;48.836;9.174;2024-01-11T05:27:18;36.27;;;16.83;;
48743;SDS011;34538;48.836;9.174;2024-01-11T05:29:45;40.80;;;17.60;;
48743;SDS011;34538;48.836;9.174;2024-01-11T05:32:12;38.70;;;18.30;;
48743;SDS011;34538;48.836;9.174;2024-01-11T05:34:40;36.93;;;16.40;;
48743;SDS011;34538;48.836;9.174;2024-01-11T05:37:06;38.73;;;16.53;;
48743;SDS011;34538;48.836;9.174;2024-01-11T05:39:33;34.03;;;16.53;;
48743;SDS011;34538;48.836;9.174;2024-01-11T05:42:00;37.00;;;15.70;;
48743;SDS011;34538;48.836;9.174;2024-01-11T05:44:27;46.40;;;22.50;;
48743;SDS011;34538;48.836;9.174;2024-01-11T05:46:54;42.60;;;18.67;;
48743;SDS011;34538;48.836;9.174;2024-01-11T05:49:21;38.67;;;17.73;;
48743;SDS011;34538;48.836;9.174;2024-01-11T05:51:49;35.13;;;16.60;;
48743;SDS011;34538;48.836;9.174;2024-01-11T05:54:16;38.57;;;16.67;;
48743;SDS011;34538;48.836;9.174;2024-01-11T05:56:43;42.50;;;16.33;;
48743;SDS011;34538;48.836;9.174;2024-01-11T05:59:09;36.93;;;16.73;;
48743;SDS011;34538;48.836;9.174;2024-01-11T06:01:39;32.73;;;16.30;;
48743;SDS011;34538;48.836;9.174;2024-01-11T06:04:07;39.08;;;17.20;;
48743;SDS011;34538;48.836;9.174;2024-01-11T06:06:33;35.60;;;16.13;;
48743;SDS011;34538;48.836;9.174;2024-01-11T06:09:02;36.73;;;16.20;;
48743;SDS011;34538;48.836;9.174;2024-01-11T06:11:29;40.93;;;18.57;;
48743;SDS011;34538;48.836;9.174;2024-01-11T06:13:57;34.50;;;15.93;;
48743;SDS011;34538;48.836;9.174;2024-01-11T06:16:23;38.03;;;16.73;;
48743;SDS011;34538;48.836;9.174;2024-01-11T06:18:50;36.40;;;16.80;;
48743;SDS011;34538;48.836;9.174;2024-01-11T06:21:17;38.50;;;17.30;;
48743;SDS011;34538;48.836;9.174;2024-01-11T06:23:44;35.07;;;16.43;;
48743;SDS011;34538;48.836;9.174;2024-01-11T06:26:13;35.03;;;17.43;;
48743;SDS011;34538;48.836;9.174;2024-01-11T06:28:39;33.77;;;16.00;;
48743;SDS011;34538;48.836;9.174;2024-01-11T06:31:06;35.60;;;17.67;;
48743;SDS011;34538;48.836;9.174;2024-01-11T06:33:35;37.47;;;16.33;;
48743;SDS011;34538;48.836;9.174;2024-01-11T06:36:02;39.10;;;18.33;;
48743;SDS011;34538;48.836;9.174;2024-01-11T06:38:31;40.83;;;16.53;;
48743;SDS011;34538;48.836;9.174;2024-01-11T06:40:58;35.83;;;15.07;;
48743;SDS011;34538;48.836;9.174;2024-01-11T06:43:26;38.67;;;17.03;;
48743;SDS011;34538;48.836;9.174;2024-01-11T06:45:52;36.33;;;16.07;;
48743;SDS011;34538;48.836;9.174;2024-01-11T06:48:19;41.87;;;17.30;;
48743;SDS011;34538;48.836;9.174;2024-01-11T06:50:46;38.33;;;16.93;;
48743;SDS011;34538;48.836;9.174;2024-01-11T06:53:13;36.60;;;17.10;;
48743;SDS011;34538;48.836;9.174;2024-01-11T06:55:39;36.17;;;15.60;;
48743;SDS011;34538;48.836;9.174;2024-01-11T06:58:08;33.20;;;15.83;;
48743;SDS011;34538;48.836;9.174;2024-01-11T07:00:36;44.07;;;17.60;;
48743;SDS011;34538;48.836;9.174;2024-01-11T07:03:08;39.63;;;18.07;;
48743;SDS011;34538;48.836;9.174;2024-01-11T07:05:34;40.27;;;16.63;;
48743;SDS011;34538;48.836;9.174;2024-01-11T07:08:02;38.80;;;17.03;;
48743;SDS011;34538;48.836;9.174;2024-01-11T07:10:29;39.07;;;17.50;;
48743;SDS011;34538;48.836;9.174;2024-01-11T07:12:57;37.57;;;16.80;;
48743;SDS011;34538;48.836;9.174;2024-01-11T07:15:24;34.67;;;16.20;;
48743;SDS011;34538;48.836;9.174;2024-01-11T07:17:52;40.87;;;17.33;;
48743;SDS011;34538;48.836;9.174;2024-01-11T07:20:19;34.13;;;15.97;;
48743;SDS011;34538;48.836;9.174;2024-01-11T07:22:46;36.57;;;16.33;;
48743;SDS011;34538;48.836;9.174;2024-01-11T07:25:13;36.97;;;15.23;;
48743;SDS011;34538;48.836;9.174;2024-01-11T07:27:40;36.40;;;17.27;;
48743;SDS011;34538;48.836;9.174;2024-01-11T07:30:07;35.30;;;17.20;;
48743;SDS011;34538;48.836;9.174;2024-01-11T07:32:35;34.57;;;15.60;;
48743;SDS011;34538;48.836;9.174;2024-01-11T07:35:04;40.73;;;17.40;;
48743;SDS011;34538;48.836;9.174;2024-01-11T07:37:31;41.20;;;18.23;;
48743;SDS011;34538;48.836;9.174;2024-01-11T07:39:58;38.70;;;16.73;;
48743;SDS011;34538;48.836;9.174;2024-01-11T07:42:25;37.77;;;17.60;;
48743;SDS011;34538;48.836;9.174;2024-01-11T07:44:51;40.43;;;16.30;;
48743;SDS011;34538;48.836;9.174;2024-01-11T07:47:18;39.53;;;18.33;;
48743;SDS011;34538;48.836;9.174;2024-01-11T07:49:45;41.53;;;17.23;;
48743;SDS011;34538;48.836;9.174;2024-01-11T07:52:14;35.00;;;16.60;;
48743;SDS011;34538;48.836;9.174;2024-01-11T07:54:41;39.13;;;17.73;;
48743;SDS011;34538;48.836;9.174;2024-01-11T07:57:07;34.53;;;16.40;;
48743;SDS011;34538;48.836;9.174;2024-01-11T07:59:34;36.43;;;17.40;;
48743;SDS011;34538;48.836;9.174;2024-01-11T08:02:01;37.87;;;17.23;;
48743;SDS011;34538;48.836;9.174;2024-01-11T08:04:28;40.53;;;17.30;;
48743;SDS011;34538;48.836;9.174;2024-01-11T08:06:55;42.20;;;18.77;;
48743;SDS011;34538;48.836;9.174;2024-01-11T08:09:25;42.43;;;18.33;;
48743;SDS011;34538;48.836;9.174;2024-01-11T08:11:52;41.90;;;18.73;;
48743;SDS011;34538;48.836;9.174;2024-01-11T08:14:19;42.23;;;19.03;;
48743;SDS011;34538;48.836;9.174;2024-01-11T08:16:46;40.90;;;18.50;;
48743;SDS011;34538;48.836;9.174;2024-01-11T08:19:13;43.10;;;19.73;;
48743;SDS011;34538;48.836;9.174;2024-01-11T08:21:39;45.17;;;20.30;;
48743;SDS011;34538;48.836;9.174;2024-01-11T08:24:07;46.17;;;19.10;;
48743;SDS011;34538;48.836;9.174;2024-01-11T08:26:36;37.43;;;17.30;;
48743;SDS011;34538;48.836;9.174;2024-01-11T08:29:02;39.80;;;18.63;;
48743;SDS011;34538;48.836;9.174;2024-01-11T08:31:30;36.23;;;18.40;;
48743;SDS011;34538;48.836;9.174;2024-01-11T08:33:57;41.57;;;19.43;;
48743;SDS011;34538;48.836;9.174;2024-01-11T08:36:24;36.73;;;17.70;;
48743;SDS011;34538;48.836;9.174;2024-01-11T08:38:56;38.43;;;18.40;;
48743;SDS011;34538;48.836;9.174;2024-01-11T08:41:22;39.73;;;17.60;;
48743;SDS011;34538;48.836;9.174;2024-01-11T08:43:50;42.43;;;19.23;;
48743;SDS011;34538;48.836;9.174;2024-01-11T08:46:23;35.47;;;17.10;;
48743;SDS011;34538;48.836;9.174;2024-01-11T08:48:50;41.37;;;18.80;;
48743;SDS011;34538;48.836;9.174;2024-01-11T08:51:17;45.97;;;19.47;;
48743;SDS011;34538;48.836;9.174;2024-01-11T08:53:44;38.63;;;18.40;;
48743;SDS011;34538;48.836;9.174;2024-01-11T08:56:11;41.80;;;19.73;;
48743;SDS011;34538;48.836;9.174;2024-01-11T08:58:39;42.47;;;19.27;;
48743;SDS011;34538;48.836;9.174;2024-01-11T09:01:07;41.87;;;19.50;;
48743;SDS011;34538;48.836;9.174;2024-01-11T09:03:34;36.97;;;18.90;;
48743;SDS011;34538;48.836;9.174;2024-01-11T09:06:01;48.20;;;20.33;;
48743;SDS011;34538;48.836;9.174;2024-01-11T09:08:28;40.43;;;19.33;;
48743;SDS011;34538;48.836;9.174;2024-01-11T09:10:55;45.70;;;20.20;;
48743;SDS011;34538;48.836;9.174;2024-01-11T09:13:23;40.87;;;19.67;;
48743;SDS011;34538;48.836;9.174;2024-01-11T09:15:51;43.63;;;20.13;;
48743;SDS011;34538;48.836;9.174;2024-01-11T09:18:19;44.80;;;20.30;;
48743;SDS011;34538;48.836;9.174;2024-01-11T09:20:46;37.33;;;19.23;;
48743;SDS011;34538;48.836;9.174;2024-01-11T09:23:14;39.70;;;21.17;;
48743;SDS011;34538;48.836;9.174;2024-01-11T09:25:43;48.07;;;20.83;;
48743;SDS011;34538;48.836;9.174;2024-01-11T09:28:10;35.33;;;18.83;;
48743;SDS011;34538;48.836;9.174;2024-01-11T09:30:36;43.97;;;21.17;;
48743;SDS011;34538;48.836;9.174;2024-01-11T09:33:03;39.53;;;20.33;;
48743;SDS011;34538;48.836;9.174;2024-01-11T09:35:32;44.60;;;21.20;;
48743;SDS011;34538;48.836;9.174;2024-01-11T09:37:59;39.93;;;19.47;;
48743;SDS011;34538;48.836;9.174;2024-01-11T09:40:26;44.57;;;21.40;;
48743;SDS011;34538;48.836;9.174;2024-01-11T09:42:53;37.20;;;19.77;;
48743;SDS011;34538;48.836;9.174;2024-01-11T09:45:20;40.87;;;19.00;;
48743;SDS011;34538;48.836;9.174;2024-01-11T09:47:47;40.17;;;20.67;;
48743;SDS011;34538;48.836;9.174;2024-01-11T09:50:16;35.10;;;19.77;;
48743;SDS011;34538;48.836;9.174;2024-01-11T09:52:46;38.70;;;20.40;;
48743;SDS011;34538;48.836;9.174;2024-01-11T09:57:43;42.33;;;20.37;;
48743;SDS011;34538;48.836;9.174;2024-01-11T10:00:12;39.13;;;20.23;;
48743;SDS011;34538;48.836;9.174;2024-01-11T10:02:43;42.57;;;20.97;;
48743;SDS011;34538;48.836;9.174;2024-01-11T10:05:11;41.30;;;20.13;;
48743;SDS011;34538;48.836;9.174;2024-01-11T10:07:39;41.47;;;20.33;;
48743;SDS011;34538;48.836;9.174;2024-01-11T10:10:08;42.13;;;20.87;;
48743;SDS011;34538;48.836;9.174;2024-01-11T10:12:35;37.13;;;19.17;;
48743;SDS011;34538;48.836;9.174;2024-01-11T10:15:05;40.97;;;20.40;;
48743;SDS011;34538;48.836;9.174;2024-01-11T10:17:34;40.07;;;20.80;;
48743;SDS011;34538;48.836;9.174;2024-01-11T10:20:02;43.87;;;19.90;;
48743;SDS011;34538;48.836;9.174;2024-01-11T10:22:29;43.37;;;20.17;;
48743;SDS011;34538;48.836;9.174;2024-01-11T10:25:10;40.57;;;20.77;;
48743;SDS011;34538;48.836;9.174;2024-01-11T10:27:37;38.03;;;20.92;;
48743;SDS011;34538;48.836;9.174;2024-01-11T10:30:07;40.47;;;20.53;;
48743;SDS011;34538;48.836;9.174;2024-01-11T10:32:34;46.00;;;21.63;;
48743;SDS011;34538;48.836;9.174;2024-01-11T10:35:01;47.33;;;22.83;;
48743;SDS011;34538;48.836;9.174;2024-01-11T10:37:30;43.50;;;19.67;;
48743;SDS011;34538;48.836;9.174;2024-01-11T10:39:58;42.00;;;22.03;;
48743;SDS011;34538;48.836;9.174;2024-01-11T10:42:30;39.30;;;19.80;;
48743;SDS011;34538;48.836;9.174;2024-01-11T10:44:58;39.17;;;21.20;;
48743;SDS011;34538;48.836;9.174;2024-01-11T10:47:30;38.27;;;20.23;;
48743;SDS011;34538;48.836;9.174;2024-01-11T10:49:57;42.43;;;21.63;;
48743;SDS011;34538;48.836;9.174;2024-01-11T10:52:28;43.10;;;21.13;;
48743;SDS011;34538;48.836;9.174;2024-01-11T10:55:03;40.23;;;20.93;;
48743;SDS011;34538;48.836;9.174;2024-01-11T10:57:31;39.40;;;21.17;;
48743;SDS011;34538;48.836;9.174;2024-01-11T10:59:59;42.33;;;21.00;;
48743;SDS011;34538;48.836;9.174;2024-01-11T11:02:30;37.25;;;20.20;;
48743;SDS011;34538;48.836;9.174;2024-01-11T11:05:00;39.20;;;21.23;;
48743;SDS011;34538;48.836;9.174;2024-01-11T11:07:29;36.73;;;21.07;;
48743;SDS011;34538;48.836;9.174;2024-01-11T11:09:56;41.03;;;20.07;;
48743;SDS011;34538;48.836;9.174;2024-01-11T11:12:24;42.53;;;20.17;;
48743;SDS011;34538;48.836;9.174;2024-01-11T11:14:53;38.43;;;20.07;;
48743;SDS011;34538;48.836;9.174;2024-01-11T11:17:20;40.27;;;20.47;;
48743;SDS011;34538;48.836;9.174;2024-01-11T11:19:47;41.97;;;21.00;;
48743;SDS011;34538;48.836;9.174;2024-01-11T11:22:14;36.93;;;19.07;;
48743;SDS011;34538;48.836;9.174;2024-01-11T11:24:42;40.47;;;20.40;;
48743;SDS011;34538;48.836;9.174;2024-01-11T11:27:12;41.67;;;21.27;;
48743;SDS011;34538;48.836;9.174;2024-01-11T11:29:40;41.22;;;21.63;;
48743;SDS011;34538;48.836;9.174;2024-01-11T11:32:09;34.77;;;18.87;;
48743;SDS011;34538;48.836;9.174;2024-01-11T11:34:40;37.90;;;19.20;;
48743;SDS011;34538;48.836;9.174;2024-01-11T11:37:09;41.30;;;21.73;;
48743;SDS011;34538;48.836;9.174;2024-01-11T11:39:36;40.87;;;21.03;;
48743;SDS011;34538;48.836;9.174;2024-01-11T11:42:03;39.80;;;20.63;;
48743;SDS011;34538;48.836;9.174;2024-01-11T11:44:31;39.83;;;20.87;;
48743;SDS011;34538;48.836;9.174;2024-01-11T11:50:05;39.93;;;21.50;;
48743;SDS011;34538;48.836;9.174;2024-01-11T11:52:33;36.60;;;19.73;;
48743;SDS011;34538;48.836;9.174;2024-01-11T11:55:01;39.90;;;20.10;;
48743;SDS011;34538;48.836;9.174;2024-01-11T11:57:28;40.93;;;22.43;;
48743;SDS011;34538;48.836;9.174;2024-01-11T11:59:55;37.70;;;20.67;;
48743;SDS011;34538;48.836;9.174;2024-01-11T12:02:25;38.67;;;20.57;;
48743;SDS011;34538;48.836;9.174;2024-01-11T12:04:52;39.87;;;20.27;;
48743;SDS011;34538;48.836;9.174;2024-01-11T12:07:19;42.37;;;21.63;;
48743;SDS011;34538;48.836;9.174;2024-01-11T12:09:48;35.83;;;19.97;;
48743;SDS011;34538;48.836;9.174;2024-01-11T12:12:15;42.67;;;21.63;;
48743;SDS011;34538;48.836;9.174;2024-01-11T12:14:42;30.93;;;19.00;;
48743;SDS011;34538;48.836;9.174;2024-01-11T12:17:11;35.90;;;18.80;;
48743;SDS011;34538;48.836;9.174;2024-01-11T12:19:39;39.10;;;21.17;;
48743;SDS011;34538;48.836;9.174;2024-01-11T12:22:07;37.00;;;19.80;;
48743;SDS011;34538;48.836;9.174;2024-01-11T12:24:34;37.83;;;21.50;;
48743;SDS011;34538;48.836;9.174;2024-01-11T12:27:01;37.47;;;19.90;;
48743;SDS011;34538;48.836;9.174;2024-01-11T12:29:28;37.43;;;21.83;;
48743;SDS011;34538;48.836;9.174;2024-01-11T12:31:56;37.20;;;19.60;;
48743;SDS011;34538;48.836;9.174;2024-01-11T12:34:24;39.30;;;20.00;;
48743;SDS011;34538;48.836;9.174;2024-01-11T12:36:52;38.60;;;20.90;;
48743;SDS011;34538;48.836;9.174;2024-01-11T12:39:20;42.10;;;20.70;;
48743;SDS011;34538;48.836;9.174;2024-01-11T12:41:49;39.20;;;21.07;;
48743;SDS011;34538;48.836;9.174;2024-01-11T12:44:17;36.07;;;20.23;;
48743;SDS011;34538;48.836;9.174;2024-01-11T12:46:45;40.77;;;20.70;;
48743;SDS011;34538;48.836;9.174;2024-01-11T12:49:14;38.77;;;19.83;;
48743;SDS011;34538;48.836;9.174;2024-01-11T12:51:41;42.07;;;22.10;;
48743;SDS011;34538;48.836;9.174;2024-01-11T12:54:11;37.00;;;19.93;;
48743;SDS011;34538;48.836;9.174;2024-01-11T12:56:42;40.63;;;20.93;;
48743;SDS011;34538;48.836;9.174;2024-01-11T12:59:09;40.13;;;21.25;;
48743;SDS011;34538;48.836;9.174;2024-01-11T13:01:37;36.53;;;21.10;;
48743;SDS011;34538;48.836;9.174;2024-01-11T13:04:05;38.20;;;20.65;;
48743;SDS011;34538;48.836;9.174;2024-01-11T13:06:34;41.88;;;20.95;;
48743;SDS011;34538;48.836;9.174;2024-01-11T13:09:01;43.47;;;21.88;;
48743;SDS011;34538;48.836;9.174;2024-01-11T13:11:30;48.85;;;22.45;;
48743;SDS011;34538;48.836;9.174;2024-01-11T13:13:57;38.33;;;19.00;;
48743;SDS011;34538;48.836;9.174;2024-01-11T13:16:26;39.60;;;19.25;;
48743;SDS011;34538;48.836;9.174;2024-01-11T13:18:53;37.75;;;19.83;;
48743;SDS011;34538;48.836;9.174;2024-01-11T13:21:19;34.50;;;19.52;;
48743;SDS011;34538;48.836;9.174;2024-01-11T13:23:46;37.25;;;19.70;;
48743;SDS011;34538;48.836;9.174;2024-01-11T13:26:13;37.85;;;19.35;;
48743;SDS011;34538;48.836;9.174;2024-01-11T13:28:41;39.25;;;19.60;;
48743;SDS011;34538;48.836;9.174;2024-01-11T13:31:08;37.47;;;19.25;;
48743;SDS011;34538;48.836;9.174;2024-01-11T13:33:36;40.75;;;20.45;;
48743;SDS011;34538;48.836;9.174;2024-01-11T13:36:04;35.90;;;19.77;;
48743;SDS011;34538;48.836;9.174;2024-01-11T13:38:32;36.13;;;19.55;;
48743;SDS011;34538;48.836;9.174;2024-01-11T13:40:59;45.75;;;21.08;;
48743;SDS011;34538;48.836;9.174;2024-01-11T13:43:26;39.80;;;21.65;;
48743;SDS011;34538;48.836;9.174;2024-01-11T13:45:54;42.38;;;20.73;;
48743;SDS011;34538;48.836;9.174;2024-01-11T13:48:21;38.67;;;20.50;;
48743;SDS011;34538;48.836;9.174;2024-01-11T13:50:48;38.28;;;19.83;;
48743;SDS011;34538;48.836;9.174;2024-01-11T13:53:15;45.47;;;22.00;;
48743;SDS011;34538;48.836;9.174;2024-01-11T13:55:41;40.30;;;21.00;;
48743;SDS011;34538;48.836;9.174;2024-01-11T13:58:08;44.13;;;21.58;;
48743;SDS011;34538;48.836;9.174;2024-01-11T14:00:37;41.40;;;21.77;;
48743;SDS011;34538;48.836;9.174;2024-01-11T14:03:06;35.83;;;19.30;;
48743;SDS011;34538;48.836;9.174;2024-01-11T14:05:33;39.75;;;20.38;;
48743;SDS011;34538;48.836;9.174;2024-01-11T14:08:01;38.67;;;20.15;;
48743;SDS011;34538;48.836;9.174;2024-01-11T14:10:30;39.47;;;19.88;;
48743;SDS011;34538;48.836;9.174;2024-01-11T14:12:59;37.65;;;20.23;;
48743;SDS011;34538;48.836;9.174;2024-01-11T14:15:26;39.17;;;19.98;;
48743;SDS011;34538;48.836;9.174;2024-01-11T14:17:53;31.55;;;18.35;;
48743;SDS011;34538;48.836;9.174;2024-01-11T14:20:22;36.10;;;18.63;;
48743;SDS011;34538;48.836;9.174;2024-01-11T14:22:49;38.28;;;20.80;;
48743;SDS011;34538;48.836;9.174;2024-01-11T14:25:17;37.20;;;20.17;;
48743;SDS011;34538;48.836;9.174;2024-01-11T14:27:45;38.08;;;19.58;;